Time;durP1;ratioP1;P1;durP2;ratioP2;P2;SDS_P1;SDS_P2;PMS_P1;PMS_P2;Temp;Humidity;BMP_temperature;BMP_pressure;BME280_temperature;BME280_humidity;BME280_pressure;Samples;Min_cycle;Max_cycle;Signal;HPM_P1;HPM_P2
2023/05/08 00:01:22;;;;;;;11.10;6.20;;;;;;;;;;110452;1254;22231;-73
2023/05/08 00:03:51;;;;;;;12.20;5.60;;;;;;;;;;110406;1277;22116;-73
2023/05/08 00:06:19;;;;;;;11.70;5.20;;;;;;;;;;110460;1277;22156;-73
2023/05/08 00:08:48;;;;;;;10.70;5.60;;;;;;;;;;110472;1277;22096;-73
2023/05/08 00:11:17;;;;;;;11.60;6.20;;;;;;;;;;110441;1277;23029;-74
2023/05/08 00:13:46;;;;;;;10.90;5.20;;;;;;;;;;110374;1259;22100;-73
2023/05/08 00:16:15;;;;;;;10.40;5.20;;;;;;;;;;110224;1277;23276;-74
2023/05/08 00:18:45;;;;;;;9.10;4.70;;;;;;;;;;110427;1277;22163;-73
2023/05/08 00:21:14;;;;;;;13.30;5.00;;;;;;;;;;110452;1277;22872;-73
2023/05/08 00:23:42;;;;;;;11.60;5.10;;;;;;;;;;110539;1259;22816;-73
2023/05/08 00:26:11;;;;;;;10.60;5.40;;;;;;;;;;110211;1277;22311;-73
2023/05/08 00:28:41;;;;;;;9.90;4.80;;;;;;;;;;110425;1277;22561;-73
2023/05/08 00:31:10;;;;;;;9.90;5.00;;;;;;;;;;110404;1277;22071;-75
2023/05/08 00:33:39;;;;;;;11.60;5.00;;;;;;;;;;110729;1258;22128;-73
2023/05/08 00:36:08;;;;;;;11.10;5.50;;;;;;;;;;110417;1277;22158;-73
2023/05/08 00:45:35;;;;;;;11.90;5.70;;;;;;;;;;103893;1301;545129;-81
2023/05/08 00:48:22;;;;;;;11.00;5.10;;;;;;;;;;106368;1286;22538;-78
2023/05/08 00:51:10;;;;;;;13.10;5.80;;;;;;;;;;106405;1286;25301;-75
2023/05/08 00:53:38;;;;;;;10.20;4.90;;;;;;;;;;106274;1286;22537;-81
2023/05/08 00:56:26;;;;;;;12.40;5.80;;;;;;;;;;106399;1263;22652;-81
2023/05/08 00:59:02;;;;;;;9.50;5.00;;;;;;;;;;104325;1284;2848697;-75
2023/05/08 01:01:39;;;;;;;12.10;5.10;;;;;;;;;;106400;1284;24367;-80
2023/05/08 01:04:08;;;;;;;12.30;5.60;;;;;;;;;;106427;1284;25231;-81
2023/05/08 01:06:56;;;;;;;12.10;4.90;;;;;;;;;;106417;1266;22635;-78
2023/05/08 01:09:26;;;;;;;12.30;5.10;;;;;;;;;;106417;1284;24224;-74
2023/05/08 01:12:16;;;;;;;11.00;4.90;;;;;;;;;;106416;1284;22996;-80
2023/05/08 01:14:46;;;;;;;9.50;5.00;;;;;;;;;;106856;1277;24370;-75
2023/05/08 01:17:18;;;;;;;12.70;5.60;;;;;;;;;;106821;1260;25315;-79
2023/05/08 01:20:18;;;;;;;10.90;5.10;;;;;;;;;;106871;1277;25536;-76
2023/05/08 01:23:25;;;;;;;12.80;5.50;;;;;;;;;;106377;1284;24233;-76
2023/05/08 01:26:23;;;;;;;;;;;;;;;;;;;;;
2023/05/08 01:29:08;;;;;;;11.20;4.30;;;;;;;;;;106378;1284;22519;-81
2023/05/08 01:31:50;;;;;;;8.80;4.30;;;;;;;;;;106387;1284;22529;-81
2023/05/08 01:34:43;;;;;;;10.80;5.20;;;;;;;;;;106379;1284;22546;-76
2023/05/08 01:37:47;;;;;;;9.70;4.50;;;;;;;;;;105908;1273;22530;-79
2023/05/08 01:40:18;;;;;;;10.80;4.30;;;;;;;;;;105830;1291;22596;-83
2023/05/08 01:43:05;;;;;;;9.70;4.70;;;;;;;;;;105896;1291;22647;-80
2023/05/08 01:45:38;;;;;;;9.20;4.20;;;;;;;;;;105813;1270;25434;-78
2023/05/08 01:48:25;;;;;;;8.50;4.50;;;;;;;;;;105892;1291;22554;-77
2023/05/08 01:51:34;;;;;;;9.90;4.80;;;;;;;;;;105933;1291;24250;-77
2023/05/08 01:54:16;;;;;;;;;;;;;;;;;;;;;
2023/05/08 01:57:04;;;;;;;;;;;;;;;;;;;;;
2023/05/08 02:00:11;;;;;;;8.50;4.40;;;;;;;;;;106368;1284;25324;-77
2023/05/08 02:02:38;;;;;;;10.30;4.60;;;;;;;;;;106376;1284;25346;-78
2023/05/08 02:05:34;;;;;;;9.70;4.20;;;;;;;;;;106384;1283;22488;-79
2023/05/08 02:08:04;;;;;;;10.70;5.10;;;;;;;;;;106401;1264;24323;-81
2023/05/08 02:10:35;;;;;;;9.30;4.50;;;;;;;;;;106381;1284;24371;-77
2023/05/08 02:13:06;;;;;;;9.20;4.80;;;;;;;;;;106386;1284;26609;-78
2023/05/08 02:15:35;;;;;;;10.60;4.90;;;;;;;;;;106811;1278;22623;-76
2023/05/08 02:18:40;;;;;;;9.90;4.80;;;;;;;;;;106800;1260;22572;-78
2023/05/08 02:21:11;;;;;;;11.00;5.00;;;;;;;;;;106823;1278;22643;-76
2023/05/08 02:23:39;;;;;;;9.40;4.80;;;;;;;;;;106812;1278;22548;-78
2023/05/08 02:26:07;;;;;;;10.90;5.20;;;;;;;;;;106824;1278;25354;-77
2023/05/08 02:28:55;;;;;;;11.10;5.30;;;;;;;;;;107048;1259;23005;-74
2023/05/08 02:31:42;;;;;;;11.20;5.50;;;;;;;;;;106813;1277;22472;-78
2023/05/08 02:34:40;;;;;;;12.20;5.40;;;;;;;;;;106856;1277;22993;-80
2023/05/08 02:37:38;;;;;;;11.30;5.40;;;;;;;;;;106838;1256;25307;-75
2023/05/08 02:40:14;;;;;;;10.80;5.40;;;;;;;;;;106816;1278;22612;-76
2023/05/08 02:42:47;;;;;;;10.40;5.50;;;;;;;;;;106795;1278;22642;-75
2023/05/08 02:45:18;;;;;;;11.00;5.50;;;;;;;;;;106933;1276;22544;-81
2023/05/08 02:47:52;;;;;;;11.60;5.60;;;;;;;;;;107045;1258;24341;-76
2023/05/08 02:50:38;;;;;;;;;;;;;;;;;;;;;
2023/05/08 02:53:56;;;;;;;9.70;5.30;;;;;;;;;;107030;1265;23051;-75
2023/05/08 02:56:47;;;;;;;;;;;;;;;;;;;;;
2023/05/08 02:59:40;;;;;;;12.70;5.40;;;;;;;;;;106835;1257;21745;-77
2023/05/08 03:02:31;;;;;;;11.10;5.60;;;;;;;;;;106879;1276;23307;-78
2023/05/08 03:05:31;;;;;;;14.80;6.10;;;;;;;;;;107056;1276;25229;-78
2023/05/08 03:09:00;;;;;;;12.60;6.10;;;;;;;;;;107038;1256;22527;-76
2023/05/08 03:12:31;;;;;;;12.60;6.00;;;;;;;;;;106929;1276;25515;-77
2023/05/08 03:15:01;;;;;;;13.40;6.20;;;;;;;;;;107064;1275;22559;-75
2023/05/08 03:20:39;;;;;;;13.90;5.80;;;;;;;;;;106857;1276;22540;-76
2023/05/08 03:23:29;;;;;;;13.00;6.10;;;;;;;;;;106900;1276;23877;-76
2023/05/08 03:26:04;;;;;;;13.10;6.10;;;;;;;;;;107025;1276;22986;-77
2023/05/08 03:29:19;;;;;;;12.10;5.90;;;;;;;;;;107036;1257;22488;-78
2023/05/08 03:32:05;;;;;;;13.00;5.70;;;;;;;;;;106913;1275;24246;-74
2023/05/08 03:34:45;;;;;;;;;;;;;;;;;;;;;
2023/05/08 03:37:19;;;;;;;13.80;6.10;;;;;;;;;;106894;1275;24202;-81
2023/05/08 03:39:50;;;;;;;12.70;6.40;;;;;;;;;;107020;1276;25155;-76
2023/05/08 03:42:25;;;;;;;12.80;5.60;;;;;;;;;;107067;1276;23859;-76
2023/05/08 03:45:16;;;;;;;11.60;6.00;;;;;;;;;;107084;1276;24357;-76
2023/05/08 03:47:58;;;;;;;;;;;;;;;;;;;;;
2023/05/08 03:50:50;;;;;;;10.40;5.50;;;;;;;;;;107032;1257;22523;-78
2023/05/08 03:53:58;;;;;;;13.20;6.10;;;;;;;;;;106875;1275;24498;-78
2023/05/08 03:57:07;;;;;;;;;;;;;;;;;;;;;
2023/05/08 04:00:24;;;;;;;11.80;6.20;;;;;;;;;;106397;1264;24189;-75
2023/05/08 04:02:55;;;;;;;11.60;5.50;;;;;;;;;;105960;1289;22643;-80
2023/05/08 04:06:14;;;;;;;;;;;;;;;;;;;;;
2023/05/08 04:09:27;;;;;;;;;;;;;;;;;;;;;
2023/05/08 04:15:53;;;;;;;13.00;6.00;;;;;;;;;;108351;1302;22174;-75
2023/05/08 04:18:28;;;;;;;13.40;6.20;;;;;;;;;;108334;1302;22056;-75
2023/05/08 04:20:57;;;;;;;13.10;5.80;;;;;;;;;;108570;1279;22185;-75
2023/05/08 04:23:27;;;;;;;12.50;6.20;;;;;;;;;;108547;1301;22279;-75
2023/05/08 04:25:55;;;;;;;12.80;6.50;;;;;;;;;;108428;1301;22246;-75
2023/05/08 04:28:22;;;;;;;12.30;5.80;;;;;;;;;;108486;1301;22370;-75
2023/05/08 04:30:55;;;;;;;11.90;6.00;;;;;;;;;;108281;1280;22194;-76
2023/05/08 04:33:22;;;;;;;10.50;5.20;;;;;;;;;;108287;1302;22216;-75
2023/05/08 04:36:00;;;;;;;11.70;5.40;;;;;;;;;;108286;1300;22327;-76
2023/05/08 04:38:27;;;;;;;10.60;5.30;;;;;;;;;;109200;1294;22168;-75
2023/05/08 04:41:01;;;;;;;11.20;6.20;;;;;;;;;;109858;1264;22273;-76
2023/05/08 04:43:28;;;;;;;10.70;5.30;;;;;;;;;;109782;1287;22335;-75
2023/05/08 04:45:54;;;;;;;10.30;5.60;;;;;;;;;;109737;1286;22160;-76
2023/05/08 04:48:25;;;;;;;13.20;5.60;;;;;;;;;;109950;1277;22721;-75
2023/05/08 04:51:20;;;;;;;9.80;4.90;;;;;;;;;;110777;1256;22971;-76
2023/05/08 04:53:49;;;;;;;10.50;5.40;;;;;;;;;;110434;1277;22849;-76
2023/05/08 04:56:16;;;;;;;9.60;5.30;;;;;;;;;;110467;1277;22123;-76
2023/05/08 04:58:43;;;;;;;10.70;5.50;;;;;;;;;;110422;1277;22142;-75
2023/05/08 05:01:10;;;;;;;11.90;5.40;;;;;;;;;;110514;1256;22180;-76
2023/05/08 05:03:37;;;;;;;9.50;5.10;;;;;;;;;;110222;1277;22349;-76
2023/05/08 05:06:04;;;;;;;11.10;5.90;;;;;;;;;;110454;1270;22961;-76
2023/05/08 05:08:31;;;;;;;13.00;5.60;;;;;;;;;;110433;1277;22343;-75
2023/05/08 05:10:58;;;;;;;11.90;6.20;;;;;;;;;;110479;1259;22208;-76
2023/05/08 05:13:28;;;;;;;12.30;5.90;;;;;;;;;;110462;1277;22124;-75
2023/05/08 05:15:57;;;;;;;10.90;5.60;;;;;;;;;;110455;1277;22263;-76
2023/05/08 05:18:24;;;;;;;11.70;6.10;;;;;;;;;;110474;1277;22998;-76
2023/05/08 05:20:51;;;;;;;12.10;5.90;;;;;;;;;;110581;1259;22838;-76
2023/05/08 05:23:18;;;;;;;10.80;5.60;;;;;;;;;;110442;1277;23086;-76
2023/05/08 05:25:50;;;;;;;10.10;5.40;;;;;;;;;;110464;1277;22845;-76
2023/05/08 05:28:17;;;;;;;9.20;5.10;;;;;;;;;;110462;1277;22091;-76
2023/05/08 05:30:45;;;;;;;9.70;5.40;;;;;;;;;;110521;1259;23013;-76
2023/05/08 05:33:12;;;;;;;9.90;5.00;;;;;;;;;;110442;1277;22866;-75
2023/05/08 05:35:39;;;;;;;9.90;4.80;;;;;;;;;;110435;1277;22358;-77
2023/05/08 05:38:05;;;;;;;8.20;5.00;;;;;;;;;;110460;1277;23135;-76
2023/05/08 05:40:33;;;;;;;8.80;4.50;;;;;;;;;;110336;1254;22972;-76
2023/05/08 05:43:00;;;;;;;10.00;4.90;;;;;;;;;;110257;1278;22215;-76
2023/05/08 05:45:27;;;;;;;11.10;4.70;;;;;;;;;;110463;1277;22147;-76
2023/05/08 05:47:54;;;;;;;10.60;4.50;;;;;;;;;;110366;1278;22115;-76
2023/05/08 05:50:22;;;;;;;10.00;4.50;;;;;;;;;;110338;1277;22179;-76
2023/05/08 05:52:49;;;;;;;10.10;5.10;;;;;;;;;;110394;1259;22227;-76
2023/05/08 05:55:16;;;;;;;9.30;4.60;;;;;;;;;;110352;1278;22194;-75
2023/05/08 05:57:42;;;;;;;8.70;4.10;;;;;;;;;;110364;1277;22168;-76
2023/05/08 06:00:10;;;;;;;9.40;4.60;;;;;;;;;;110344;1278;22219;-76
2023/05/08 06:02:46;;;;;;;8.60;4.50;;;;;;;;;;110370;1259;22119;-76
2023/05/08 06:05:14;;;;;;;8.90;4.50;;;;;;;;;;110348;1278;22085;-76
2023/05/08 06:07:41;;;;;;;8.90;4.90;;;;;;;;;;110414;1277;22914;-76
2023/05/08 06:10:08;;;;;;;9.30;4.60;;;;;;;;;;110443;1277;22117;-76
2023/05/08 06:12:34;;;;;;;9.10;4.40;;;;;;;;;;110604;1259;22986;-75
2023/05/08 06:15:02;;;;;;;9.00;4.70;;;;;;;;;;110357;1278;22983;-76
2023/05/08 06:17:28;;;;;;;7.80;4.30;;;;;;;;;;110432;1277;22223;-76
2023/05/08 06:19:56;;;;;;;9.00;4.60;;;;;;;;;;110482;1277;22125;-76
2023/05/08 06:22:23;;;;;;;7.60;3.80;;;;;;;;;;110552;1259;22173;-75
2023/05/08 06:24:53;;;;;;;9.90;4.50;;;;;;;;;;110336;1277;22825;-76
2023/05/08 06:27:21;;;;;;;9.00;4.40;;;;;;;;;;110360;1277;22747;-76
2023/05/08 06:29:54;;;;;;;9.10;4.60;;;;;;;;;;110234;1278;22268;-76
2023/05/08 06:32:21;;;;;;;7.60;4.10;;;;;;;;;;110603;1257;22163;-76
2023/05/08 06:34:47;;;;;;;9.00;5.00;;;;;;;;;;110349;1278;22172;-76
2023/05/08 06:37:14;;;;;;;8.60;4.90;;;;;;;;;;110343;1278;22258;-77
2023/05/08 06:39:41;;;;;;;9.40;4.30;;;;;;;;;;110404;1278;22193;-75
2023/05/08 06:42:08;;;;;;;9.80;5.40;;;;;;;;;;110385;1259;22130;-76
2023/05/08 06:44:37;;;;;;;8.50;4.20;;;;;;;;;;110430;1278;22177;-76
2023/05/08 06:47:08;;;;;;;8.50;4.60;;;;;;;;;;110275;1278;22102;-76
2023/05/08 06:49:35;;;;;;;8.60;4.80;;;;;;;;;;110421;1278;22093;-76
2023/05/08 06:52:01;;;;;;;10.60;5.20;;;;;;;;;;110416;1256;22208;-76
2023/05/08 06:54:28;;;;;;;9.50;4.50;;;;;;;;;;110280;1276;22126;-76
2023/05/08 06:56:55;;;;;;;9.50;4.20;;;;;;;;;;110183;1278;22124;-79
2023/05/08 06:59:25;;;;;;;7.60;4.10;;;;;;;;;;110395;1278;22105;-76
2023/05/08 07:01:51;;;;;;;10.00;4.00;;;;;;;;;;110403;1278;22121;-77
2023/05/08 07:04:18;;;;;;;8.20;4.10;;;;;;;;;;110695;1259;22750;-76
2023/05/08 07:06:45;;;;;;;9.50;4.40;;;;;;;;;;110276;1278;22190;-75
2023/05/08 07:09:11;;;;;;;7.20;3.50;;;;;;;;;;110405;1278;22753;-76
2023/05/08 07:11:38;;;;;;;8.60;3.90;;;;;;;;;;110411;1278;22739;-75
2023/05/08 07:14:05;;;;;;;8.90;3.60;;;;;;;;;;110620;1256;22216;-77
2023/05/08 07:16:32;;;;;;;9.20;3.70;;;;;;;;;;110260;1278;22172;-76
2023/05/08 07:18:59;;;;;;;8.60;3.80;;;;;;;;;;110262;1278;22109;-77
2023/05/08 07:21:25;;;;;;;7.90;3.10;;;;;;;;;;110391;1278;22198;-76
2023/05/08 07:23:53;;;;;;;7.20;3.50;;;;;;;;;;110592;1259;22639;-76
2023/05/08 07:26:20;;;;;;;7.40;3.30;;;;;;;;;;110406;1278;22901;-76
2023/05/08 07:28:47;;;;;;;8.40;3.70;;;;;;;;;;110433;1259;22350;-75
2023/05/08 07:31:14;;;;;;;8.10;3.50;;;;;;;;;;110267;1278;22094;-76
2023/05/08 07:33:40;;;;;;;6.60;3.60;;;;;;;;;;110444;1259;22009;-76
2023/05/08 07:36:07;;;;;;;6.80;3.00;;;;;;;;;;110279;1278;22140;-76
2023/05/08 07:38:34;;;;;;;8.30;3.50;;;;;;;;;;110369;1278;22096;-75
2023/05/08 07:41:00;;;;;;;7.40;3.80;;;;;;;;;;110257;1279;22144;-76
2023/05/08 07:43:27;;;;;;;7.70;3.70;;;;;;;;;;110340;1259;22109;-76
2023/05/08 07:45:54;;;;;;;7.30;3.60;;;;;;;;;;110324;1278;22191;-75
2023/05/08 07:48:20;;;;;;;9.10;3.80;;;;;;;;;;110331;1279;22873;-76
2023/05/08 07:50:48;;;;;;;8.80;4.20;;;;;;;;;;110349;1279;22209;-76
2023/05/08 07:53:15;;;;;;;8.80;4.50;;;;;;;;;;110261;1257;22851;-77
2023/05/08 07:55:41;;;;;;;7.90;3.80;;;;;;;;;;110131;1279;22100;-75
2023/05/08 07:58:08;;;;;;;7.70;4.10;;;;;;;;;;110319;1279;22108;-75
2023/05/08 08:00:35;;;;;;;8.00;3.60;;;;;;;;;;110365;1279;22311;-76
2023/05/08 08:03:02;;;;;;;7.50;4.10;;;;;;;;;;110235;1279;22909;-76
2023/05/08 08:05:29;;;;;;;8.40;4.00;;;;;;;;;;110477;1256;22163;-76
2023/05/08 08:07:55;;;;;;;8.80;3.80;;;;;;;;;;110348;1279;22075;-76
2023/05/08 08:10:22;;;;;;;7.90;3.90;;;;;;;;;;110194;1279;22979;-77
2023/05/08 08:12:48;;;;;;;8.00;4.10;;;;;;;;;;110239;1279;22909;-76
2023/05/08 08:15:15;;;;;;;8.80;4.20;;;;;;;;;;110284;1260;22982;-76
2023/05/08 08:17:42;;;;;;;7.80;3.90;;;;;;;;;;110365;1279;22808;-76
2023/05/08 08:20:09;;;;;;;7.30;3.30;;;;;;;;;;110236;1279;22098;-77
2023/05/08 08:22:36;;;;;;;7.60;3.80;;;;;;;;;;110353;1279;22138;-76
2023/05/08 08:25:02;;;;;;;8.20;3.80;;;;;;;;;;110259;1256;22186;-77
2023/05/08 08:27:29;;;;;;;8.90;3.70;;;;;;;;;;110217;1279;22902;-77
2023/05/08 08:29:56;;;;;;;7.80;3.50;;;;;;;;;;110338;1279;22193;-76
2023/05/08 08:32:22;;;;;;;8.80;3.50;;;;;;;;;;110238;1279;22622;-76
2023/05/08 08:34:49;;;;;;;7.00;3.50;;;;;;;;;;110472;1260;23073;-76
2023/05/08 08:37:16;;;;;;;8.00;3.70;;;;;;;;;;110356;1279;22478;-75
2023/05/08 08:39:43;;;;;;;11.70;3.80;;;;;;;;;;110176;1279;22138;-76
2023/05/08 08:42:11;;;;;;;7.30;3.50;;;;;;;;;;110258;1279;22346;-76
2023/05/08 08:44:38;;;;;;;7.80;3.70;;;;;;;;;;110219;1261;22174;-76
2023/05/08 08:47:06;;;;;;;8.40;3.60;;;;;;;;;;110300;1279;22107;-75
2023/05/08 08:49:40;;;;;;;6.80;3.50;;;;;;;;;;110295;1279;22163;-77
2023/05/08 08:52:14;;;;;;;6.50;3.40;;;;;;;;;;110301;1279;22109;-76
2023/05/08 08:54:43;;;;;;;7.70;3.40;;;;;;;;;;110228;1257;22131;-76
2023/05/08 08:57:11;;;;;;;6.80;3.30;;;;;;;;;;110277;1279;22159;-76
2023/05/08 08:59:39;;;;;;;7.70;3.50;;;;;;;;;;110270;1279;22076;-75
2023/05/08 09:02:10;;;;;;;7.60;3.50;;;;;;;;;;110169;1279;22106;-75
2023/05/08 09:04:37;;;;;;;8.10;3.40;;;;;;;;;;110275;1257;22267;-76
2023/05/08 09:07:05;;;;;;;6.70;3.50;;;;;;;;;;110173;1279;22164;-75
2023/05/08 09:09:34;;;;;;;10.10;3.70;;;;;;;;;;110281;1279;22175;-76
2023/05/08 09:12:01;;;;;;;8.20;3.80;;;;;;;;;;110295;1279;22149;-76
2023/05/08 09:14:28;;;;;;;7.90;3.50;;;;;;;;;;110276;1279;22105;-77
2023/05/08 09:16:55;;;;;;;6.80;3.40;;;;;;;;;;110665;1259;22126;-75
2023/05/08 09:19:22;;;;;;;7.70;4.20;;;;;;;;;;110240;1279;22634;-76
2023/05/08 09:21:48;;;;;;;7.80;3.60;;;;;;;;;;110187;1279;21986;-76
2023/05/08 09:24:15;;;;;;;7.30;3.30;;;;;;;;;;110168;1279;22089;-76
2023/05/08 09:26:42;;;;;;;7.00;3.20;;;;;;;;;;110524;1259;22190;-76
2023/05/08 09:29:09;;;;;;;7.90;3.70;;;;;;;;;;110102;1279;22125;-76
2023/05/08 09:31:38;;;;;;;9.10;3.70;;;;;;;;;;110283;1279;22146;-76
2023/05/08 09:34:08;;;;;;;7.50;4.10;;;;;;;;;;110288;1279;22377;-75
2023/05/08 09:36:36;;;;;;;7.60;4.30;;;;;;;;;;110399;1260;22016;-76
2023/05/08 09:39:03;;;;;;;9.00;4.00;;;;;;;;;;110167;1280;22778;-75
2023/05/08 09:41:30;;;;;;;9.20;4.50;;;;;;;;;;110241;1279;22339;-75
2023/05/08 09:44:06;;;;;;;8.50;4.30;;;;;;;;;;110224;1279;22721;-75
2023/05/08 09:46:33;;;;;;;7.80;3.60;;;;;;;;;;110319;1262;22944;-76
2023/05/08 09:49:03;;;;;;;8.70;3.70;;;;;;;;;;110093;1279;22292;-75
2023/05/08 09:51:30;;;;;;;6.80;3.70;;;;;;;;;;110164;1280;22432;-75
2023/05/08 09:53:58;;;;;;;9.30;4.30;;;;;;;;;;110162;1279;22185;-74
2023/05/08 09:56:29;;;;;;;8.70;3.60;;;;;;;;;;110252;1262;22908;-76
2023/05/08 09:58:57;;;;;;;7.70;3.90;;;;;;;;;;110161;1279;22119;-76
2023/05/08 10:01:30;;;;;;;9.50;4.30;;;;;;;;;;110181;1279;22870;-75
2023/05/08 10:03:57;;;;;;;10.80;4.00;;;;;;;;;;110140;1279;22206;-76
2023/05/08 10:06:27;;;;;;;8.30;3.90;;;;;;;;;;110263;1261;22893;-78
2023/05/08 10:09:13;;;;;;;8.30;4.20;;;;;;;;;;110170;1279;22136;-76
2023/05/08 10:11:41;;;;;;;9.30;4.20;;;;;;;;;;110148;1279;21654;-75
2023/05/08 10:14:09;;;;;;;6.80;3.50;;;;;;;;;;110227;1279;22097;-76
2023/05/08 10:16:40;;;;;;;8.20;4.70;;;;;;;;;;110239;1260;22144;-77
2023/05/08 10:19:11;;;;;;;8.70;3.80;;;;;;;;;;110447;1277;22127;-76
2023/05/08 10:21:41;;;;;;;7.90;5.00;;;;;;;;;;110447;1277;22081;-76
2023/05/08 10:24:13;;;;;;;7.60;4.50;;;;;;;;;;110378;1277;22083;-76
2023/05/08 10:26:42;;;;;;;10.00;4.70;;;;;;;;;;110582;1259;22638;-76
2023/05/08 10:29:17;;;;;;;8.10;4.90;;;;;;;;;;110456;1277;21998;-75
2023/05/08 10:31:45;;;;;;;8.50;4.00;;;;;;;;;;110361;1277;22175;-75
2023/05/08 10:34:17;;;;;;;9.00;4.10;;;;;;;;;;110352;1277;21987;-75
2023/05/08 10:36:45;;;;;;;9.10;3.80;;;;;;;;;;110478;1255;22099;-75
2023/05/08 10:39:18;;;;;;;10.20;4.40;;;;;;;;;;110448;1278;22230;-75
2023/05/08 10:41:49;;;;;;;8.00;4.20;;;;;;;;;;110312;1278;22142;-75
2023/05/08 10:44:18;;;;;;;10.80;4.80;;;;;;;;;;110428;1278;22152;-76
2023/05/08 10:47:08;;;;;;;8.80;4.80;;;;;;;;;;110125;1257;22964;-75
2023/05/08 10:49:48;;;;;;;8.10;4.40;;;;;;;;;;110311;1278;22806;-75
2023/05/08 10:52:24;;;;;;;8.90;4.90;;;;;;;;;;110438;1277;22151;-76
2023/05/08 10:55:12;;;;;;;9.20;4.20;;;;;;;;;;110452;1278;22130;-75
2023/05/08 10:58:01;;;;;;;8.70;4.80;;;;;;;;;;110476;1259;22252;-76
2023/05/08 11:00:52;;;;;;;9.30;4.90;;;;;;;;;;110428;1278;22155;-76
2023/05/08 11:03:24;;;;;;;9.40;5.30;;;;;;;;;;110423;1277;22561;-75
2023/05/08 11:05:53;;;;;;;8.60;4.30;;;;;;;;;;110438;1278;22113;-75
2023/05/08 11:08:24;;;;;;;8.30;4.30;;;;;;;;;;110357;1258;22130;-76
2023/05/08 11:11:05;;;;;;;10.90;4.10;;;;;;;;;;110187;1278;22335;-78
2023/05/08 11:13:38;;;;;;;10.70;5.10;;;;;;;;;;110334;1278;22115;-76
2023/05/08 11:16:07;;;;;;;8.60;4.80;;;;;;;;;;110429;1278;22108;-75
2023/05/08 11:18:36;;;;;;;10.30;5.10;;;;;;;;;;110697;1259;22212;-75
2023/05/08 11:21:06;;;;;;;8.70;4.70;;;;;;;;;;110306;1278;22477;-75
2023/05/08 11:23:35;;;;;;;9.20;4.50;;;;;;;;;;110188;1278;22157;-76
2023/05/08 11:26:06;;;;;;;9.10;4.80;;;;;;;;;;110129;1278;22114;-76
2023/05/08 11:28:40;;;;;;;9.40;5.10;;;;;;;;;;110358;1261;22595;-75
2023/05/08 11:31:08;;;;;;;8.90;4.60;;;;;;;;;;110438;1278;22156;-75
2023/05/08 11:33:39;;;;;;;9.70;4.60;;;;;;;;;;110317;1278;22114;-76
2023/05/08 11:36:27;;;;;;;11.10;4.40;;;;;;;;;;110412;1278;22599;-76
2023/05/08 11:42:57;;;;;;;9.60;5.10;;;;;;;;;;103882;1293;544867;-79
2023/05/08 11:45:24;;;;;;;8.30;4.50;;;;;;;;;;106315;1286;24276;-82
2023/05/08 11:47:59;;;;;;;9.30;5.30;;;;;;;;;;106297;1286;23879;-76
2023/05/08 11:50:26;;;;;;;9.70;5.10;;;;;;;;;;106326;1286;25352;-77
2023/05/08 11:52:53;;;;;;;8.70;5.40;;;;;;;;;;106279;1287;22536;-77
2023/05/08 11:55:19;;;;;;;8.90;5.30;;;;;;;;;;106045;1287;22548;-76
2023/05/08 11:57:46;;;;;;;8.60;5.20;;;;;;;;;;104168;1279;3059651;-74
2023/05/08 12:00:13;;;;;;;8.80;4.50;;;;;;;;;;106394;1279;22584;-77
2023/05/08 12:02:41;;;;;;;10.20;5.00;;;;;;;;;;106351;1269;22860;-75
2023/05/08 12:05:09;;;;;;;10.00;5.00;;;;;;;;;;106160;1286;25335;-79
2023/05/08 12:07:43;;;;;;;10.10;5.30;;;;;;;;;;106377;1279;22526;-75
2023/05/08 12:10:10;;;;;;;8.90;5.10;;;;;;;;;;106135;1283;22544;-75
2023/05/08 12:12:38;;;;;;;8.80;4.90;;;;;;;;;;106214;1265;22655;-79
2023/05/08 12:15:09;;;;;;;10.30;4.80;;;;;;;;;;106315;1279;24235;-80
2023/05/08 12:17:36;;;;;;;9.00;5.40;;;;;;;;;;106471;1276;22530;-80
2023/05/08 12:20:13;;;;;;;10.70;5.40;;;;;;;;;;106435;1279;22852;-76
2023/05/08 12:22:40;;;;;;;11.50;5.60;;;;;;;;;;106317;1270;24062;-79
2023/05/08 12:25:08;;;;;;;8.20;4.90;;;;;;;;;;106360;1279;22611;-75
2023/05/08 12:27:38;;;;;;;9.60;5.10;;;;;;;;;;106051;1279;22543;-76
2023/05/08 12:30:07;;;;;;;10.70;5.10;;;;;;;;;;106128;1279;25291;-76
2023/05/08 12:32:35;;;;;;;8.50;5.00;;;;;;;;;;106106;1279;25338;-75
2023/05/08 12:35:03;;;;;;;9.10;5.30;;;;;;;;;;106412;1269;22778;-79
2023/05/08 12:37:30;;;;;;;9.10;5.60;;;;;;;;;;106459;1279;23375;-77
2023/05/08 12:39:57;;;;;;;10.90;5.10;;;;;;;;;;106376;1279;22671;-75
2023/05/08 12:42:43;;;;;;;8.80;5.10;;;;;;;;;;106275;1279;24891;-77
2023/05/08 12:45:27;;;;;;;9.40;4.90;;;;;;;;;;106235;1269;25049;-82
2023/05/08 12:48:17;;;;;;;9.70;5.20;;;;;;;;;;105985;1284;22451;-78
2023/05/08 12:50:53;;;;;;;9.30;5.10;;;;;;;;;;106050;1279;23917;-76
2023/05/08 12:53:21;;;;;;;10.40;5.10;;;;;;;;;;106288;1264;22536;-80
2023/05/08 12:55:53;;;;;;;8.70;5.10;;;;;;;;;;106284;1284;24231;-79
2023/05/08 12:58:23;;;;;;;7.60;4.80;;;;;;;;;;106236;1279;23328;-75
2023/05/08 13:00:50;;;;;;;9.80;5.00;;;;;;;;;;106364;1279;22533;-76
2023/05/08 13:03:25;;;;;;;9.10;4.90;;;;;;;;;;106172;1282;23329;-74
2023/05/08 13:05:53;;;;;;;9.00;4.50;;;;;;;;;;106011;1272;24211;-77
2023/05/08 13:08:28;;;;;;;8.60;4.70;;;;;;;;;;106120;1278;24406;-75
2023/05/08 13:11:06;;;;;;;9.10;5.30;;;;;;;;;;106158;1282;22551;-77
2023/05/08 13:13:34;;;;;;;8.10;4.90;;;;;;;;;;106236;1281;24276;-74
2023/05/08 13:16:02;;;;;;;8.30;4.40;;;;;;;;;;106070;1272;23905;-78
2023/05/08 13:18:29;;;;;;;9.40;4.80;;;;;;;;;;106220;1286;22669;-79
2023/05/08 13:21:05;;;;;;;8.90;4.80;;;;;;;;;;106247;1278;25447;-79
2023/05/08 13:23:33;;;;;;;10.70;5.10;;;;;;;;;;106227;1278;22545;-76
2023/05/08 13:26:00;;;;;;;9.00;4.30;;;;;;;;;;106316;1269;22537;-75
2023/05/08 13:28:26;;;;;;;7.90;4.00;;;;;;;;;;106353;1279;22786;-76
2023/05/08 13:30:53;;;;;;;7.50;4.20;;;;;;;;;;106173;1279;22537;-75
2023/05/08 13:33:20;;;;;;;11.10;4.00;;;;;;;;;;106271;1284;22708;-76
2023/05/08 13:35:47;;;;;;;8.50;3.90;;;;;;;;;;106274;1269;22805;-77
2023/05/08 13:38:14;;;;;;;9.50;3.80;;;;;;;;;;106253;1279;22459;-76
2023/05/08 13:40:41;;;;;;;8.70;3.80;;;;;;;;;;106165;1282;24247;-78
2023/05/08 13:43:08;;;;;;;8.10;3.50;;;;;;;;;;106385;1279;24234;-77
2023/05/08 13:45:35;;;;;;;8.40;3.90;;;;;;;;;;106119;1269;25429;-81
2023/05/08 13:48:03;;;;;;;7.90;3.70;;;;;;;;;;106090;1282;24354;-78
2023/05/08 13:50:30;;;;;;;9.20;4.20;;;;;;;;;;106272;1279;22517;-75
2023/05/08 13:52:57;;;;;;;9.60;4.10;;;;;;;;;;106199;1281;22587;-77
2023/05/08 13:55:27;;;;;;;7.60;4.20;;;;;;;;;;106081;1279;22775;-79
2023/05/08 13:57:58;;;;;;;8.20;4.10;;;;;;;;;;106356;1263;24228;-79
2023/05/08 14:00:25;;;;;;;7.30;3.90;;;;;;;;;;106370;1278;22571;-80
2023/05/08 14:02:51;;;;;;;8.70;4.00;;;;;;;;;;106153;1279;22493;-78
2023/05/08 14:05:18;;;;;;;8.30;3.80;;;;;;;;;;106148;1272;24346;-76
2023/05/08 14:07:45;;;;;;;8.40;3.70;;;;;;;;;;106088;1284;22534;-79
2023/05/08 14:10:16;;;;;;;9.50;3.60;;;;;;;;;;106165;1280;23348;-76
2023/05/08 14:12:43;;;;;;;8.00;3.70;;;;;;;;;;106246;1282;25274;-75
2023/05/08 14:15:15;;;;;;;9.70;4.10;;;;;;;;;;106182;1263;22530;-74
2023/05/08 14:17:42;;;;;;;10.80;4.60;;;;;;;;;;106213;1269;24016;-77
2023/05/08 14:20:09;;;;;;;8.80;3.60;;;;;;;;;;106385;1279;22547;-75
2023/05/08 14:22:37;;;;;;;6.30;3.40;;;;;;;;;;106218;1285;24470;-76
2023/05/08 14:25:04;;;;;;;7.50;3.70;;;;;;;;;;106132;1264;25236;-76
2023/05/08 14:27:32;;;;;;;7.30;3.40;;;;;;;;;;105942;1285;25561;-75
2023/05/08 14:29:59;;;;;;;6.60;3.30;;;;;;;;;;106081;1284;25366;-76
2023/05/08 14:32:26;;;;;;;9.00;3.50;;;;;;;;;;106240;1279;24242;-81
2023/05/08 14:34:54;;;;;;;7.70;3.60;;;;;;;;;;106240;1284;22706;-78
2023/05/08 14:37:21;;;;;;;7.10;3.40;;;;;;;;;;106387;1276;24503;-76
2023/05/08 14:39:48;;;;;;;7.00;3.30;;;;;;;;;;106382;1279;24209;-74
2023/05/08 14:42:17;;;;;;;8.80;4.10;;;;;;;;;;106393;1282;22571;-78
2023/05/08 14:44:52;;;;;;;8.30;4.10;;;;;;;;;;106109;1278;22627;-79
2023/05/08 14:47:19;;;;;;;8.90;4.00;;;;;;;;;;106082;1270;23879;-76
2023/05/08 14:49:49;;;;;;;8.50;3.70;;;;;;;;;;106214;1279;22533;-76
2023/05/08 14:52:15;;;;;;;6.90;3.40;;;;;;;;;;106064;1282;22512;-77
2023/05/08 14:54:43;;;;;;;7.60;3.30;;;;;;;;;;106008;1285;24206;-77
2023/05/08 14:57:10;;;;;;;7.30;3.70;;;;;;;;;;106026;1266;25432;-78
2023/05/08 14:59:37;;;;;;;8.20;3.30;;;;;;;;;;106057;1279;25297;-80
2023/05/08 15:02:04;;;;;;;8.90;3.60;;;;;;;;;;106243;1279;23901;-77
2023/05/08 15:04:34;;;;;;;8.20;3.50;;;;;;;;;;106390;1284;22533;-77
2023/05/08 15:07:01;;;;;;;8.30;3.80;;;;;;;;;;106300;1282;22581;-75
2023/05/08 15:09:36;;;;;;;8.40;3.20;;;;;;;;;;106274;1282;24212;-78
2023/05/08 15:12:03;;;;;;;7.50;3.50;;;;;;;;;;106092;1286;24305;-76
2023/05/08 15:14:30;;;;;;;7.80;3.60;;;;;;;;;;106066;1282;25387;-76
2023/05/08 15:17:17;;;;;;;7.30;3.20;;;;;;;;;;105876;1288;24245;-81
2023/05/08 15:20:05;;;;;;;7.40;3.20;;;;;;;;;;105935;1285;25330;-78
2023/05/08 15:22:53;;;;;;;6.80;3.30;;;;;;;;;;105969;1288;22536;-74
2023/05/08 15:25:20;;;;;;;7.90;3.20;;;;;;;;;;105989;1288;23323;-78
2023/05/08 15:27:52;;;;;;;6.70;3.20;;;;;;;;;;105926;1288;22919;-76